Accueil
METAR-TAF:

METAR-TAF

Aéroports :

Churchill Falls, Terre-Neuve-et-Labrador, Canada

latitude: 53-33N, longitude: 064-06W, altitude: 440 m

Observation

Le bulletin a été fait il y a 19 minutes, à 21:00 UTC
Vent 6 kt de nord-est
Température 2°C
Humidité 44%
Pression 1010 hPa
Visibilité: 14.5 km
Ciel clair

METAR: CZUM 242100Z AUTO 05006KT 9SM CLR 02/M09 A2982 RMK SLP126

Heure: 18:19 (21:19 UTC)

Prévision

Le bulletin a été fait il y a 1 heure et 41 minutes, à 19:38 UTC
Prévision valable du 24 à 20 UTC au 25 à 08 UTC
Vent 7 kt de est/nord-est
Visibilité: 10 km
Quelques nuages à une hauteur de 4000 ft
A partir de 25 à 0500 UTC
Vent 7 kt de est
Visibilité: 10 km
Nuages fragmentés à une hauteur de 4000 ft

TAF: CZUM 241938Z 2420/2508 07007KT P6SM FEW040 FM250500 08007KT P6SM BKN040 RMK FCST BASED ON AUTO OBS. NXT FCST BY 250200Z

Observations et prévisions météorologiques de plus de 4000 aéroports (messages METAR et TAF).

Les stations disponibles sont représentées par des disques jaunes et rouges sur la carte.

Passer la souris dessus pour voir le nom de la station.

Cliquer dessus pour voir les observations et prévisions météorologiques.

Pour changer de carte: cliquez sur les boutons verts avec une croix noire pour zoomer, sur le bouton vert avec un tiret pour effectuer un zoom arrière, ou sur les flèches vertes pour les cartes adjacentes.


METAR-TAF: